sensor_id;sensor_type;location;lat;lon;timestamp;pressure;altitude;pressure_sealevel;temperature;humidity
47913;BME280;33676;51.006;17.180;2023-06-14T00:00:16;100219.23;;;11.12;71.87
47913;BME280;33676;51.006;17.180;2023-06-14T00:03:05;100220.67;;;11.07;71.86
47913;BME280;33676;51.006;17.180;2023-06-14T00:05:34;100223.43;;;11.03;71.94
47913;BME280;33676;51.006;17.180;2023-06-14T00:08:07;100221.08;;;11.00;72.03
47913;BME280;33676;51.006;17.180;2023-06-14T00:10:37;100218.25;;;10.96;72.11
47913;BME280;33676;51.006;17.180;2023-06-14T00:13:05;100217.34;;;10.92;72.16
47913;BME280;33676;51.006;17.180;2023-06-14T00:15:35;100226.23;;;10.88;72.18
47913;BME280;33676;51.006;17.180;2023-06-14T00:18:04;100227.27;;;10.84;72.44
47913;BME280;33676;51.006;17.180;2023-06-14T00:20:33;100226.54;;;10.80;72.58
47913;BME280;33676;51.006;17.180;2023-06-14T00:23:02;100225.09;;;10.76;72.60
47913;BME280;33676;51.006;17.180;2023-06-14T00:25:30;100223.70;;;10.72;72.75
47913;BME280;33676;51.006;17.180;2023-06-14T00:27:59;100219.79;;;10.68;72.97
47913;BME280;33676;51.006;17.180;2023-06-14T00:30:28;100223.03;;;10.65;72.99
47913;BME280;33676;51.006;17.180;2023-06-14T00:32:59;100221.09;;;10.63;73.00
47913;BME280;33676;51.006;17.180;2023-06-14T00:35:28;100224.13;;;10.59;73.22
47913;BME280;33676;51.006;17.180;2023-06-14T00:37:56;100224.80;;;10.56;73.16
47913;BME280;33676;51.006;17.180;2023-06-14T00:40:25;100225.80;;;10.52;73.17
47913;BME280;33676;51.006;17.180;2023-06-14T00:42:53;100226.94;;;10.48;73.29
47913;BME280;33676;51.006;17.180;2023-06-14T00:45:22;100224.25;;;10.45;73.41
47913;BME280;33676;51.006;17.180;2023-06-14T00:47:51;100224.57;;;10.41;73.47
47913;BME280;33676;51.006;17.180;2023-06-14T00:50:24;100226.05;;;10.38;73.71
47913;BME280;33676;51.006;17.180;2023-06-14T00:52:53;100231.20;;;10.35;73.70
47913;BME280;33676;51.006;17.180;2023-06-14T00:55:21;100232.66;;;10.32;73.88
47913;BME280;33676;51.006;17.180;2023-06-14T00:57:50;100237.19;;;10.30;74.06
47913;BME280;33676;51.006;17.180;2023-06-14T01:00:19;100233.57;;;10.26;74.27
47913;BME280;33676;51.006;17.180;2023-06-14T01:02:48;100235.58;;;10.23;74.35
47913;BME280;33676;51.006;17.180;2023-06-14T01:05:18;100239.14;;;10.20;74.57
47913;BME280;33676;51.006;17.180;2023-06-14T01:08:31;100238.79;;;10.17;74.64
47913;BME280;33676;51.006;17.180;2023-06-14T01:11:17;100238.20;;;10.14;74.82
47913;BME280;33676;51.006;17.180;2023-06-14T01:13:48;100236.23;;;10.12;75.17
47913;BME280;33676;51.006;17.180;2023-06-14T01:16:19;100234.87;;;10.09;75.23
47913;BME280;33676;51.006;17.180;2023-06-14T01:18:49;100233.29;;;10.07;75.21
47913;BME280;33676;51.006;17.180;2023-06-14T01:21:22;100232.51;;;10.04;75.32
47913;BME280;33676;51.006;17.180;2023-06-14T01:23:52;100232.21;;;10.01;75.43
47913;BME280;33676;51.006;17.180;2023-06-14T01:26:22;100232.57;;;9.99;75.57
47913;BME280;33676;51.006;17.180;2023-06-14T01:28:52;100236.04;;;9.96;75.57
47913;BME280;33676;51.006;17.180;2023-06-14T01:31:27;100235.52;;;9.94;75.84
47913;BME280;33676;51.006;17.180;2023-06-14T01:33:55;100234.38;;;9.90;76.12
47913;BME280;33676;51.006;17.180;2023-06-14T01:36:26;100235.21;;;9.86;76.22
47913;BME280;33676;51.006;17.180;2023-06-14T01:38:56;100232.38;;;9.85;76.23
47913;BME280;33676;51.006;17.180;2023-06-14T01:41:25;100232.20;;;9.83;76.49
47913;BME280;33676;51.006;17.180;2023-06-14T01:43:55;100233.08;;;9.80;76.48
47913;BME280;33676;51.006;17.180;2023-06-14T01:46:25;100241.55;;;9.79;76.65
47913;BME280;33676;51.006;17.180;2023-06-14T01:48:53;100239.47;;;9.77;76.75
47913;BME280;33676;51.006;17.180;2023-06-14T01:51:22;100241.58;;;9.74;76.67
47913;BME280;33676;51.006;17.180;2023-06-14T01:53:51;100241.71;;;9.72;76.81
47913;BME280;33676;51.006;17.180;2023-06-14T01:56:19;100241.90;;;9.70;76.79
47913;BME280;33676;51.006;17.180;2023-06-14T01:58:48;100238.16;;;9.69;77.05
47913;BME280;33676;51.006;17.180;2023-06-14T02:01:16;100234.66;;;9.66;77.03
47913;BME280;33676;51.006;17.180;2023-06-14T02:03:45;100234.48;;;9.64;77.27
47913;BME280;33676;51.006;17.180;2023-06-14T02:06:14;100235.85;;;9.62;77.36
47913;BME280;33676;51.006;17.180;2023-06-14T02:08:44;100237.80;;;9.59;77.47
47913;BME280;33676;51.006;17.180;2023-06-14T02:11:13;100234.41;;;9.58;77.49
47913;BME280;33676;51.006;17.180;2023-06-14T02:13:41;100231.49;;;9.57;77.56
47913;BME280;33676;51.006;17.180;2023-06-14T02:16:10;100232.11;;;9.56;77.79
47913;BME280;33676;51.006;17.180;2023-06-14T02:18:38;100233.30;;;9.54;77.79
47913;BME280;33676;51.006;17.180;2023-06-14T02:21:07;100236.00;;;9.53;77.65
47913;BME280;33676;51.006;17.180;2023-06-14T02:23:35;100235.66;;;9.50;77.74
47913;BME280;33676;51.006;17.180;2023-06-14T02:26:04;100231.93;;;9.49;77.92
47913;BME280;33676;51.006;17.180;2023-06-14T02:28:32;100233.54;;;9.49;78.12
47913;BME280;33676;51.006;17.180;2023-06-14T02:31:01;100234.45;;;9.50;78.25
47913;BME280;33676;51.006;17.180;2023-06-14T02:33:30;100234.13;;;9.52;78.42
47913;BME280;33676;51.006;17.180;2023-06-14T02:35:58;100227.77;;;9.56;78.68
47913;BME280;33676;51.006;17.180;2023-06-14T02:38:27;100224.15;;;9.57;78.76
47913;BME280;33676;51.006;17.180;2023-06-14T02:40:55;100220.17;;;9.59;78.95
47913;BME280;33676;51.006;17.180;2023-06-14T02:43:24;100221.57;;;9.61;78.95
47913;BME280;33676;51.006;17.180;2023-06-14T02:45:52;100219.65;;;9.64;79.01
47913;BME280;33676;51.006;17.180;2023-06-14T02:48:21;100226.18;;;9.68;79.24
47913;BME280;33676;51.006;17.180;2023-06-14T02:50:49;100223.57;;;9.70;79.36
47913;BME280;33676;51.006;17.180;2023-06-14T02:53:19;100222.80;;;9.71;79.20
47913;BME280;33676;51.006;17.180;2023-06-14T02:55:48;100226.22;;;9.72;79.19
47913;BME280;33676;51.006;17.180;2023-06-14T02:58:17;100230.89;;;9.72;79.22
47913;BME280;33676;51.006;17.180;2023-06-14T03:00:46;100232.08;;;9.73;79.18
47913;BME280;33676;51.006;17.180;2023-06-14T03:03:15;100231.24;;;9.72;79.18
47913;BME280;33676;51.006;17.180;2023-06-14T03:05:47;100235.77;;;9.73;79.12
47913;BME280;33676;51.006;17.180;2023-06-14T03:08:17;100232.55;;;9.73;79.31
47913;BME280;33676;51.006;17.180;2023-06-14T03:10:48;100230.13;;;9.75;79.34
47913;BME280;33676;51.006;17.180;2023-06-14T03:13:17;100231.27;;;9.79;79.53
47913;BME280;33676;51.006;17.180;2023-06-14T03:15:49;100230.77;;;9.83;79.74
47913;BME280;33676;51.006;17.180;2023-06-14T03:18:20;100230.45;;;9.87;79.84
47913;BME280;33676;51.006;17.180;2023-06-14T03:21:03;100231.51;;;9.94;80.19
47913;BME280;33676;51.006;17.180;2023-06-14T03:23:31;100232.45;;;10.02;80.41
47913;BME280;33676;51.006;17.180;2023-06-14T03:26:00;100231.91;;;10.11;80.77
47913;BME280;33676;51.006;17.180;2023-06-14T03:28:28;100234.05;;;10.22;80.95
47913;BME280;33676;51.006;17.180;2023-06-14T03:30:57;100235.38;;;10.33;80.98
47913;BME280;33676;51.006;17.180;2023-06-14T03:33:25;100236.41;;;10.42;81.18
47913;BME280;33676;51.006;17.180;2023-06-14T03:35:54;100233.45;;;10.50;81.03
47913;BME280;33676;51.006;17.180;2023-06-14T03:38:22;100235.76;;;10.59;81.08
47913;BME280;33676;51.006;17.180;2023-06-14T03:40:51;100234.84;;;10.68;81.25
47913;BME280;33676;51.006;17.180;2023-06-14T03:43:20;100235.27;;;10.78;81.35
47913;BME280;33676;51.006;17.180;2023-06-14T03:45:48;100230.67;;;10.87;81.37
47913;BME280;33676;51.006;17.180;2023-06-14T03:48:17;100232.03;;;10.96;81.39
47913;BME280;33676;51.006;17.180;2023-06-14T03:50:45;100234.16;;;11.07;81.59
47913;BME280;33676;51.006;17.180;2023-06-14T03:53:15;100230.79;;;11.18;81.75
47913;BME280;33676;51.006;17.180;2023-06-14T03:55:43;100239.10;;;11.30;81.73
47913;BME280;33676;51.006;17.180;2023-06-14T03:58:16;100239.03;;;11.40;81.71
47913;BME280;33676;51.006;17.180;2023-06-14T04:00:44;100245.45;;;11.48;81.66
47913;BME280;33676;51.006;17.180;2023-06-14T04:03:13;100246.96;;;11.57;81.66
47913;BME280;33676;51.006;17.180;2023-06-14T04:05:44;100247.35;;;11.68;81.80
47913;BME280;33676;51.006;17.180;2023-06-14T04:08:13;100247.44;;;11.77;81.92
47913;BME280;33676;51.006;17.180;2023-06-14T04:10:43;100251.46;;;11.86;81.72
47913;BME280;33676;51.006;17.180;2023-06-14T04:13:11;100249.48;;;11.95;81.60
47913;BME280;33676;51.006;17.180;2023-06-14T04:15:51;100249.86;;;12.02;81.75
47913;BME280;33676;51.006;17.180;2023-06-14T04:18:25;100251.80;;;12.11;81.80
47913;BME280;33676;51.006;17.180;2023-06-14T04:20:54;100250.73;;;12.17;81.77
47913;BME280;33676;51.006;17.180;2023-06-14T04:23:22;100250.13;;;12.24;81.75
47913;BME280;33676;51.006;17.180;2023-06-14T04:25:51;100254.38;;;12.32;81.75
47913;BME280;33676;51.006;17.180;2023-06-14T04:28:20;100253.34;;;12.40;81.79
47913;BME280;33676;51.006;17.180;2023-06-14T04:30:53;100250.54;;;12.49;82.01
47913;BME280;33676;51.006;17.180;2023-06-14T04:33:22;100251.34;;;12.58;81.96
47913;BME280;33676;51.006;17.180;2023-06-14T04:35:54;100252.13;;;12.68;81.88
47913;BME280;33676;51.006;17.180;2023-06-14T04:38:24;100254.43;;;12.75;81.81
47913;BME280;33676;51.006;17.180;2023-06-14T04:40:53;100253.33;;;12.86;81.81
47913;BME280;33676;51.006;17.180;2023-06-14T04:43:22;100255.14;;;12.97;81.83
47913;BME280;33676;51.006;17.180;2023-06-14T04:45:54;100259.83;;;13.07;81.73
47913;BME280;33676;51.006;17.180;2023-06-14T04:48:25;100264.51;;;13.18;81.87
47913;BME280;33676;51.006;17.180;2023-06-14T04:50:54;100259.58;;;13.29;81.88
47913;BME280;33676;51.006;17.180;2023-06-14T04:53:22;100256.34;;;13.39;81.74
47913;BME280;33676;51.006;17.180;2023-06-14T04:55:51;100258.28;;;13.48;81.73
47913;BME280;33676;51.006;17.180;2023-06-14T04:58:21;100261.84;;;13.57;81.71
47913;BME280;33676;51.006;17.180;2023-06-14T05:00:49;100270.33;;;13.67;81.69
47913;BME280;33676;51.006;17.180;2023-06-14T05:03:18;100272.46;;;13.76;81.59
47913;BME280;33676;51.006;17.180;2023-06-14T05:05:50;100271.77;;;13.83;81.36
47913;BME280;33676;51.006;17.180;2023-06-14T05:08:21;100267.70;;;13.91;81.32
47913;BME280;33676;51.006;17.180;2023-06-14T05:10:52;100267.73;;;14.02;81.52
47913;BME280;33676;51.006;17.180;2023-06-14T05:13:21;100268.83;;;14.13;81.52
47913;BME280;33676;51.006;17.180;2023-06-14T05:15:51;100274.23;;;14.23;81.43
47913;BME280;33676;51.006;17.180;2023-06-14T05:18:20;100271.38;;;14.31;81.22
47913;BME280;33676;51.006;17.180;2023-06-14T05:20:48;100267.59;;;14.39;81.13
47913;BME280;33676;51.006;17.180;2023-06-14T05:23:17;100270.99;;;14.48;81.05
47913;BME280;33676;51.006;17.180;2023-06-14T05:25:46;100274.42;;;14.56;80.94
47913;BME280;33676;51.006;17.180;2023-06-14T05:28:15;100272.80;;;14.62;80.80
47913;BME280;33676;51.006;17.180;2023-06-14T05:30:44;100273.42;;;14.69;80.81
47913;BME280;33676;51.006;17.180;2023-06-14T05:33:13;100275.27;;;14.77;80.83
47913;BME280;33676;51.006;17.180;2023-06-14T05:35:42;100270.25;;;14.85;80.83
47913;BME280;33676;51.006;17.180;2023-06-14T05:38:10;100266.23;;;14.96;80.83
47913;BME280;33676;51.006;17.180;2023-06-14T05:40:39;100266.23;;;15.09;81.03
47913;BME280;33676;51.006;17.180;2023-06-14T05:43:07;100267.90;;;15.20;80.93
47913;BME280;33676;51.006;17.180;2023-06-14T05:45:36;100269.48;;;15.33;81.05
47913;BME280;33676;51.006;17.180;2023-06-14T05:48:05;100269.55;;;15.46;81.02
47913;BME280;33676;51.006;17.180;2023-06-14T05:50:34;100270.92;;;15.58;80.78
47913;BME280;33676;51.006;17.180;2023-06-14T05:53:02;100273.35;;;15.67;80.62
47913;BME280;33676;51.006;17.180;2023-06-14T05:55:31;100271.97;;;15.84;81.03
47913;BME280;33676;51.006;17.180;2023-06-14T05:57:59;100271.60;;;16.04;81.03
47913;BME280;33676;51.006;17.180;2023-06-14T06:00:29;100273.19;;;16.09;80.83
47913;BME280;33676;51.006;17.180;2023-06-14T06:02:57;100272.11;;;16.14;80.98
47913;BME280;33676;51.006;17.180;2023-06-14T06:05:27;100271.56;;;16.37;81.62
47913;BME280;33676;51.006;17.180;2023-06-14T06:07:56;100275.85;;;16.58;81.67
47913;BME280;33676;51.006;17.180;2023-06-14T06:10:25;100279.89;;;16.77;81.28
47913;BME280;33676;51.006;17.180;2023-06-14T06:12:53;100278.48;;;16.91;80.85
47913;BME280;33676;51.006;17.180;2023-06-14T06:15:28;100280.50;;;17.05;80.72
47913;BME280;33676;51.006;17.180;2023-06-14T06:17:57;100284.06;;;17.20;80.37
47913;BME280;33676;51.006;17.180;2023-06-14T06:20:29;100286.02;;;17.35;80.22
47913;BME280;33676;51.006;17.180;2023-06-14T06:23:00;100288.46;;;17.48;79.99
47913;BME280;33676;51.006;17.180;2023-06-14T06:25:30;100291.70;;;17.64;79.84
47913;BME280;33676;51.006;17.180;2023-06-14T06:28:00;100295.06;;;17.82;79.70
47913;BME280;33676;51.006;17.180;2023-06-14T06:30:29;100294.89;;;18.06;79.89
47913;BME280;33676;51.006;17.180;2023-06-14T06:33:00;100296.77;;;18.28;79.65
47913;BME280;33676;51.006;17.180;2023-06-14T06:35:29;100296.84;;;18.46;79.40
47913;BME280;33676;51.006;17.180;2023-06-14T06:37:59;100294.69;;;18.58;78.85
47913;BME280;33676;51.006;17.180;2023-06-14T06:43:31;100293.38;;;18.65;77.73
47913;BME280;33676;51.006;17.180;2023-06-14T06:45:59;100292.48;;;18.65;77.49
47913;BME280;33676;51.006;17.180;2023-06-14T06:51:22;100303.27;;;18.67;76.97
47913;BME280;33676;51.006;17.180;2023-06-14T06:53:53;100305.75;;;18.73;77.33
47913;BME280;33676;51.006;17.180;2023-06-14T06:56:34;100303.95;;;18.81;77.20
47913;BME280;33676;51.006;17.180;2023-06-14T06:59:08;100305.83;;;18.84;76.97
47913;BME280;33676;51.006;17.180;2023-06-14T07:01:37;100313.59;;;18.90;76.93
47913;BME280;33676;51.006;17.180;2023-06-14T07:04:05;100316.10;;;18.93;76.75
47913;BME280;33676;51.006;17.180;2023-06-14T07:06:53;100319.21;;;18.95;76.49
47913;BME280;33676;51.006;17.180;2023-06-14T07:09:47;100314.90;;;19.01;76.38
47913;BME280;33676;51.006;17.180;2023-06-14T07:29:22;100315.00;;;20.14;75.11
47913;BME280;33676;51.006;17.180;2023-06-14T07:31:51;100314.85;;;20.26;74.72
47913;BME280;33676;51.006;17.180;2023-06-14T07:34:19;100310.82;;;20.34;74.94
47913;BME280;33676;51.006;17.180;2023-06-14T07:36:46;100309.62;;;20.45;74.89
47913;BME280;33676;51.006;17.180;2023-06-14T07:39:14;100309.15;;;20.53;74.60
47913;BME280;33676;51.006;17.180;2023-06-14T07:41:41;100307.58;;;20.60;74.46
47913;BME280;33676;51.006;17.180;2023-06-14T07:44:08;100310.35;;;20.65;74.34
47913;BME280;33676;51.006;17.180;2023-06-14T07:46:47;100308.08;;;20.69;74.38
47913;BME280;33676;51.006;17.180;2023-06-14T07:49:16;100308.92;;;20.74;74.37
47913;BME280;33676;51.006;17.180;2023-06-14T07:51:44;100314.30;;;20.73;73.99
47913;BME280;33676;51.006;17.180;2023-06-14T07:54:11;100313.64;;;20.72;73.83
47913;BME280;33676;51.006;17.180;2023-06-14T07:56:42;100315.77;;;20.69;73.87
47913;BME280;33676;51.006;17.180;2023-06-14T07:59:11;100317.90;;;20.73;73.78
47913;BME280;33676;51.006;17.180;2023-06-14T08:01:39;100315.23;;;20.85;73.64
47913;BME280;33676;51.006;17.180;2023-06-14T08:04:06;100315.75;;;21.05;73.66
47913;BME280;33676;51.006;17.180;2023-06-14T08:06:35;100315.27;;;21.18;72.96
47913;BME280;33676;51.006;17.180;2023-06-14T08:09:02;100311.35;;;20.92;71.54
47913;BME280;33676;51.006;17.180;2023-06-14T08:11:29;100309.22;;;20.69;71.88
47913;BME280;33676;51.006;17.180;2023-06-14T08:13:59;100308.73;;;20.55;71.91
47913;BME280;33676;51.006;17.180;2023-06-14T08:16:27;100308.77;;;20.48;72.14
47913;BME280;33676;51.006;17.180;2023-06-14T08:18:55;100310.98;;;20.43;71.87
47913;BME280;33676;51.006;17.180;2023-06-14T08:21:22;100308.21;;;20.53;72.40
47913;BME280;33676;51.006;17.180;2023-06-14T08:23:50;100311.16;;;20.80;73.03
47913;BME280;33676;51.006;17.180;2023-06-14T08:26:20;100309.13;;;21.07;73.02
47913;BME280;33676;51.006;17.180;2023-06-14T08:28:47;100309.19;;;21.31;72.84
47913;BME280;33676;51.006;17.180;2023-06-14T08:31:15;100313.91;;;21.43;72.44
47913;BME280;33676;51.006;17.180;2023-06-14T08:33:42;100312.36;;;21.44;71.99
47913;BME280;33676;51.006;17.180;2023-06-14T08:36:10;100311.10;;;21.46;71.93
47913;BME280;33676;51.006;17.180;2023-06-14T08:38:39;100316.70;;;21.47;71.59
47913;BME280;33676;51.006;17.180;2023-06-14T08:41:07;100312.46;;;21.49;71.65
47913;BME280;33676;51.006;17.180;2023-06-14T08:43:35;100312.56;;;21.59;71.68
47913;BME280;33676;51.006;17.180;2023-06-14T08:46:04;100309.06;;;21.71;71.77
47913;BME280;33676;51.006;17.180;2023-06-14T08:48:33;100309.27;;;21.85;71.49
47913;BME280;33676;51.006;17.180;2023-06-14T08:51:00;100311.14;;;21.94;71.28
47913;BME280;33676;51.006;17.180;2023-06-14T08:53:32;100311.73;;;22.01;71.16
47913;BME280;33676;51.006;17.180;2023-06-14T08:56:05;100312.92;;;21.98;70.74
47913;BME280;33676;51.006;17.180;2023-06-14T08:58:33;100313.90;;;21.93;70.63
47913;BME280;33676;51.006;17.180;2023-06-14T09:01:01;100315.13;;;21.93;70.66
47913;BME280;33676;51.006;17.180;2023-06-14T09:03:29;100316.98;;;21.97;70.51
47913;BME280;33676;51.006;17.180;2023-06-14T09:06:00;100317.76;;;22.08;70.59
47913;BME280;33676;51.006;17.180;2023-06-14T09:08:28;100318.77;;;22.27;70.52
47913;BME280;33676;51.006;17.180;2023-06-14T09:10:58;100321.54;;;22.50;70.53
47913;BME280;33676;51.006;17.180;2023-06-14T09:13:26;100317.95;;;22.68;70.63
47913;BME280;33676;51.006;17.180;2023-06-14T09:15:58;100317.66;;;22.88;70.60
47913;BME280;33676;51.006;17.180;2023-06-14T09:18:40;100314.88;;;23.11;70.63
47913;BME280;33676;51.006;17.180;2023-06-14T09:21:08;100317.92;;;23.30;70.29
47913;BME280;33676;51.006;17.180;2023-06-14T09:23:42;100319.59;;;23.37;69.72
47913;BME280;33676;51.006;17.180;2023-06-14T09:26:15;100320.40;;;23.43;69.03
47913;BME280;33676;51.006;17.180;2023-06-14T09:28:46;100317.86;;;23.45;67.93
47913;BME280;33676;51.006;17.180;2023-06-14T09:31:18;100317.71;;;23.07;66.79
47913;BME280;33676;51.006;17.180;2023-06-14T09:33:50;100317.90;;;22.72;66.88
47913;BME280;33676;51.006;17.180;2023-06-14T09:36:22;100319.88;;;22.47;66.90
47913;BME280;33676;51.006;17.180;2023-06-14T09:39:01;100318.92;;;22.32;66.95
47913;BME280;33676;51.006;17.180;2023-06-14T09:41:40;100314.08;;;22.12;67.18
47913;BME280;33676;51.006;17.180;2023-06-14T09:44:08;100316.27;;;22.13;67.83
47913;BME280;33676;51.006;17.180;2023-06-14T09:46:42;100317.80;;;22.23;68.31
47913;BME280;33676;51.006;17.180;2023-06-14T09:49:10;100319.57;;;22.29;68.05
47913;BME280;33676;51.006;17.180;2023-06-14T09:51:43;100320.84;;;22.37;67.71
47913;BME280;33676;51.006;17.180;2023-06-14T09:54:16;100317.79;;;22.50;67.60
47913;BME280;33676;51.006;17.180;2023-06-14T09:56:45;100320.70;;;22.68;67.71
47913;BME280;33676;51.006;17.180;2023-06-14T09:59:16;100326.22;;;22.88;67.76
47913;BME280;33676;51.006;17.180;2023-06-14T10:01:46;100329.12;;;23.01;67.48
47913;BME280;33676;51.006;17.180;2023-06-14T10:04:15;100325.63;;;23.09;67.35
47913;BME280;33676;51.006;17.180;2023-06-14T10:06:47;100328.91;;;23.11;67.03
47913;BME280;33676;51.006;17.180;2023-06-14T10:09:14;100331.95;;;23.08;66.76
47913;BME280;33676;51.006;17.180;2023-06-14T10:11:42;100333.59;;;23.05;66.83
47913;BME280;33676;51.006;17.180;2023-06-14T10:14:13;100335.71;;;23.02;66.88
47913;BME280;33676;51.006;17.180;2023-06-14T10:17:00;100336.65;;;22.99;67.00
47913;BME280;33676;51.006;17.180;2023-06-14T10:19:44;100330.64;;;23.09;67.53
47913;BME280;33676;51.006;17.180;2023-06-14T10:22:21;100329.77;;;23.26;67.57
47913;BME280;33676;51.006;17.180;2023-06-14T10:24:49;100328.45;;;23.44;67.43
47913;BME280;33676;51.006;17.180;2023-06-14T10:27:17;100328.71;;;23.62;67.34
47913;BME280;33676;51.006;17.180;2023-06-14T10:30:02;100329.17;;;23.79;67.32
47913;BME280;33676;51.006;17.180;2023-06-14T10:32:31;100332.42;;;23.96;67.08
47913;BME280;33676;51.006;17.180;2023-06-14T10:35:05;100328.42;;;24.05;66.46
47913;BME280;33676;51.006;17.180;2023-06-14T10:37:36;100328.80;;;24.12;66.10
47913;BME280;33676;51.006;17.180;2023-06-14T10:40:07;100329.60;;;24.24;66.25
47913;BME280;33676;51.006;17.180;2023-06-14T10:42:37;100322.85;;;24.37;66.13
47913;BME280;33676;51.006;17.180;2023-06-14T10:45:05;100330.61;;;24.47;66.07
47913;BME280;33676;51.006;17.180;2023-06-14T10:47:34;100331.73;;;24.17;64.60
47913;BME280;33676;51.006;17.180;2023-06-14T10:50:10;100326.84;;;23.74;64.44
47913;BME280;33676;51.006;17.180;2023-06-14T10:52:42;100329.50;;;23.58;64.92
47913;BME280;33676;51.006;17.180;2023-06-14T10:55:17;100324.59;;;23.49;65.26
47913;BME280;33676;51.006;17.180;2023-06-14T10:57:52;100323.46;;;23.43;65.06
47913;BME280;33676;51.006;17.180;2023-06-14T11:00:28;100324.61;;;23.52;65.47
47913;BME280;33676;51.006;17.180;2023-06-14T11:05:50;100322.33;;;24.15;66.26
47913;BME280;33676;51.006;17.180;2023-06-14T11:11:32;100311.60;;;25.04;66.23
47913;BME280;33676;51.006;17.180;2023-06-14T11:14:01;100311.24;;;25.50;66.19
47913;BME280;33676;51.006;17.180;2023-06-14T11:16:30;100311.14;;;25.82;65.86
47913;BME280;33676;51.006;17.180;2023-06-14T11:19:01;100310.52;;;26.06;65.17
47913;BME280;33676;51.006;17.180;2023-06-14T11:21:33;100304.34;;;26.18;64.48
47913;BME280;33676;51.006;17.180;2023-06-14T11:24:00;100304.45;;;26.32;64.18
47913;BME280;33676;51.006;17.180;2023-06-14T11:26:29;100305.20;;;26.47;64.00
47913;BME280;33676;51.006;17.180;2023-06-14T11:29:00;100299.36;;;26.70;64.08
47913;BME280;33676;51.006;17.180;2023-06-14T11:31:29;100300.44;;;26.93;63.94
47913;BME280;33676;51.006;17.180;2023-06-14T11:33:59;100304.75;;;27.16;63.75
47913;BME280;33676;51.006;17.180;2023-06-14T11:36:29;100303.98;;;27.39;63.31
47913;BME280;33676;51.006;17.180;2023-06-14T11:39:06;100303.55;;;27.51;62.74
47913;BME280;33676;51.006;17.180;2023-06-14T11:44:06;100294.21;;;27.50;61.58
47913;BME280;33676;51.006;17.180;2023-06-14T11:46:34;100295.10;;;27.49;61.45
47913;BME280;33676;51.006;17.180;2023-06-14T11:49:03;100297.23;;;27.32;60.24
47913;BME280;33676;51.006;17.180;2023-06-14T11:51:34;100298.27;;;26.50;58.94
47913;BME280;33676;51.006;17.180;2023-06-14T11:54:03;100294.54;;;25.77;59.03
47913;BME280;33676;51.006;17.180;2023-06-14T11:56:32;100292.85;;;25.24;59.34
47913;BME280;33676;51.006;17.180;2023-06-14T11:59:02;100295.85;;;24.88;59.96
47913;BME280;33676;51.006;17.180;2023-06-14T12:01:30;100290.25;;;24.58;59.91
47913;BME280;33676;51.006;17.180;2023-06-14T12:03:59;100284.73;;;24.50;60.70
47913;BME280;33676;51.006;17.180;2023-06-14T12:06:30;100283.96;;;24.65;61.25
47913;BME280;33676;51.006;17.180;2023-06-14T12:09:04;100287.70;;;24.84;61.53
47913;BME280;33676;51.006;17.180;2023-06-14T12:11:35;100281.55;;;25.04;61.38
47913;BME280;33676;51.006;17.180;2023-06-14T12:14:05;100278.38;;;25.20;61.16
47913;BME280;33676;51.006;17.180;2023-06-14T12:16:35;100273.49;;;25.32;61.10
47913;BME280;33676;51.006;17.180;2023-06-14T12:19:15;100271.34;;;25.50;61.12
47913;BME280;33676;51.006;17.180;2023-06-14T12:21:46;100271.55;;;25.64;60.96
47913;BME280;33676;51.006;17.180;2023-06-14T12:24:18;100268.58;;;25.87;60.89
47913;BME280;33676;51.006;17.180;2023-06-14T12:26:45;100270.06;;;26.19;60.98
47913;BME280;33676;51.006;17.180;2023-06-14T12:29:13;100269.37;;;26.52;61.08
47913;BME280;33676;51.006;17.180;2023-06-14T12:31:41;100267.08;;;26.80;60.97
47913;BME280;33676;51.006;17.180;2023-06-14T12:34:08;100265.46;;;27.05;60.86
47913;BME280;33676;51.006;17.180;2023-06-14T12:36:35;100262.66;;;27.22;60.36
47913;BME280;33676;51.006;17.180;2023-06-14T12:39:08;100261.45;;;27.38;59.91
47913;BME280;33676;51.006;17.180;2023-06-14T12:41:36;100258.79;;;27.47;59.61
47913;BME280;33676;51.006;17.180;2023-06-14T12:44:04;100259.17;;;27.54;59.32
47913;BME280;33676;51.006;17.180;2023-06-14T12:46:31;100256.58;;;27.51;58.85
47913;BME280;33676;51.006;17.180;2023-06-14T12:48:59;100254.87;;;27.49;58.72
47913;BME280;33676;51.006;17.180;2023-06-14T12:51:26;100251.85;;;27.62;58.67
47913;BME280;33676;51.006;17.180;2023-06-14T12:53:54;100250.13;;;27.86;58.92
47913;BME280;33676;51.006;17.180;2023-06-14T12:56:21;100249.64;;;28.21;59.40
47913;BME280;33676;51.006;17.180;2023-06-14T12:58:51;100251.38;;;28.53;59.10
47913;BME280;33676;51.006;17.180;2023-06-14T13:01:19;100250.13;;;28.21;56.18
47913;BME280;33676;51.006;17.180;2023-06-14T13:03:47;100251.02;;;27.28;55.56
47913;BME280;33676;51.006;17.180;2023-06-14T13:06:17;100254.42;;;26.63;56.13
47913;BME280;33676;51.006;17.180;2023-06-14T13:08:44;100256.34;;;26.09;56.44
47913;BME280;33676;51.006;17.180;2023-06-14T13:11:11;100255.13;;;25.59;56.83
47913;BME280;33676;51.006;17.180;2023-06-14T13:13:39;100258.91;;;25.09;57.29
47913;BME280;33676;51.006;17.180;2023-06-14T13:16:06;100257.61;;;24.76;57.91
47913;BME280;33676;51.006;17.180;2023-06-14T13:18:33;100255.27;;;24.58;58.80
47913;BME280;33676;51.006;17.180;2023-06-14T13:21:00;100252.96;;;24.45;59.24
47913;BME280;33676;51.006;17.180;2023-06-14T13:23:28;100252.76;;;24.31;59.30
47913;BME280;33676;51.006;17.180;2023-06-14T13:25:55;100252.17;;;24.16;59.61